Relevés horaires Elsenborn (Belgique)


Relevés horaires à Elsenborn - Samedi 19 Nov. 2016
Heure UTC1 Température [°C] Vent [km/h] Hum. [%] Pres.4 [hPa] Visi. [Km] Nébu. [octa] Préc.5 [mm] Cond.
2m. Res. Ros. Dir.2 Vit. Moy. Raf.3
23:00 1.5 -0.8 0.1 S 7.4 -- -- 90 1006.6(-2.2/3h) 20 -- -- --
22:00 1.7 -1.1 0.5 S 9.3 -- -- 92 1007.2(-1.6/3h) 20 -- -- --
21:00 1.6 -0.7 0.6 S 7.4 -- -- 93 1008.2(-1.0/3h) 20 -- -- --
20:00 1.8 -0.4 0.6 SSO 7.4 -- -- 92 1008.8(-0.2/3h) 20 -- -- --
19:00 1.3 -1 0.4 SSO 7.4 -- -- 94 1009.1(0.0/3h) 20 -- -- --
18:00 1.1 -1.3 0.1 SSO 7.4 -- -- 93 1009.5(0.4/3h) 20 -- 0.1/12h
NA
17:00 1.8 -1 0.6 SSO 9.3 -- -- 92 1009.2(0.4/3h) 20 -- -- --
16:00 2.0 -0.2 0.4 SO 7.4 -- -- 89 1008.8(0.4/3h) 20 -- -- NA
15:00 2.5 -0.2 0.2 SO 9.3 -- -- 85 1008.7(0.5/3h) 12 -- -- Il y a de la pluie faible et continue à la station au moment de l'observation
14:00 2.7 0.1 -- SO 9.3 -- -- -- 1008.5(0.5/3h) 20 -- -- --
13:00 2.8 0.2 -- SO 9.3 -- -- -- 1008.3(0.6/3h) 20 -- -- --
12:00 3.0 0 -- SO 11.1 -- -- -- 1007.8(0.6/3h) 20 -- -- --
11:00 2.9 -0.1 -0.1 SO 11.1 -- -- 81 1007.8(1.1/3h) 20 -- -- --
10:00 3.0 0.4 0.3 SO 9.3 -- -- 82 1007.5(1.3/3h) 20 -- -- --
09:00 2.2 -0.5 -0.2 SO 9.3 -- -- 84 1007.5(1.1/3h) 20 -- -- --
08:00 2.2 -0.5 0.1 SO 9.3 -- -- 86 1006.7(0.4/3h) 20 -- -- --
07:00 2.4 0.3 0.4 SO 7.4 -- -- 87 1006.2(0.3/3h) 20 -- -- --
06:00 2.4 0.9 0.8 SO 5.6 -- -- 89 1006.1(0.2/3h) 20 -- -- NA
05:00 2.4 0.3 1.0 SO 7.4 -- -- 90 1006(-0.4/3h) 20 -- -- NA
04:00 2.0 -0.2 1.0 SSO 7.4 -- -- 93 1005.8(-0.7/3h) 20 -- -- --
03:00 2.0 0.4 1.1 SSO 5.6 -- -- 94 1006(-1.1/3h) 20 -- -- --
02:00 2.0 -0.2 1.0 SSO 7.4 -- -- 93 1006.5(-0.7/3h) 20 -- -- --
01:00 2.0 -0.7 0.9 SSO 9.3 -- -- 92 1006.7(-0.5/3h) 20 -- -- --
00:00 1.7 0.1 0.8 SSO 5.6 -- -- 94 1007.2(0.0/3h) 20 -- -- --

1 Coordinated Universal Time. Actuellement il est 20:00 locale et 18:00 UTC.

2 Le vent souffle depuis la direction indiquée vers la direction oposée.

3 Les rafales max. sont disponible 40 min après l'heure du relevé.

4 Pour les stations d'altitude (plus de 600m) le géopotentiel du niveau le plus proche de la pression obligatoire est indiqué.

5 Les stations disposant d'un diffuseur peuvent indiquer "trace". Cela signifie que des précipitations ont touchés le sol mais que la quantité est inférieure à 0.1 mm.

Récapitulatif de la journée
Température [°C] Vent [km/h] Ensoleillement4 [h] Precipitations totale5 [mm] Pression [Hpa]
Min1 Max.2 Moy.3 Max. Min Max.
1.5 3.6 0 -- 0 h 0 min 0 1005.8 1009.5

1 Température minimale relevée entre 18:00 UTC la veille et 18:00 UTC le jour donné.

2 Température maximale relevée entre 06:00 UTC le jour donné et 06:00 UTC le lendemain.

3 Vent moyen de la journée basé sur les relevés horaires.

4 Ensoleillement en heures relevé entre 06:00 UTC la veille et 06:00 UTC le jour donné.

5 Précipitations totales tombées entre 06:00 UTC la jour donné et 06:00 UTC le lendemain.

Graphiques horaires